createdAt,value
2023-04-01T00:00:59.954Z,9.61
2023-04-01T00:03:28.122Z,9.65
2023-04-01T00:05:56.920Z,9.58
2023-04-01T00:08:24.084Z,9.59
2023-04-01T00:10:51.973Z,9.59
2023-04-01T00:13:19.466Z,9.58
2023-04-01T00:15:46.600Z,9.58
2023-04-01T00:18:13.741Z,9.57
2023-04-01T00:20:43.574Z,9.55
2023-04-01T00:23:10.847Z,9.52
2023-04-01T00:25:37.407Z,9.55
2023-04-01T00:28:03.844Z,9.53
2023-04-01T00:30:30.341Z,9.52
2023-04-01T00:32:56.906Z,9.53
2023-04-01T00:35:23.635Z,9.51
2023-04-01T00:37:50.359Z,9.51
2023-04-01T00:40:35.854Z,9.52
2023-04-01T00:43:03.354Z,9.50
2023-04-01T00:45:36.468Z,9.49
2023-04-01T00:48:09.153Z,9.47
2023-04-01T00:50:37.917Z,9.48
2023-04-01T00:53:06.692Z,9.47
2023-04-01T00:55:36.659Z,9.46
2023-04-01T00:58:08.168Z,9.47
2023-04-01T01:00:36.213Z,9.47
2023-04-01T01:03:03.724Z,9.42
2023-04-01T01:05:59.606Z,9.44
2023-04-01T01:08:44.756Z,9.43
2023-04-01T01:11:51.412Z,9.44
2023-04-01T01:14:56.194Z,9.44
2023-04-01T01:17:48.335Z,9.46
2023-04-01T01:20:58.294Z,9.44
2023-04-01T01:24:04.192Z,9.46
2023-04-01T01:27:00.276Z,9.46
2023-04-01T01:30:06.977Z,9.46
2023-04-01T01:32:58.137Z,9.46
2023-04-01T01:35:32.475Z,9.48
2023-04-01T01:38:23.344Z,9.51
2023-04-01T01:41:11.912Z,9.52
2023-04-01T01:43:45.719Z,9.48
2023-04-01T01:46:19.701Z,9.51
2023-04-01T01:48:48.152Z,9.51
2023-04-01T01:51:15.222Z,9.53
2023-04-01T01:53:41.912Z,9.50
2023-04-01T01:56:09.013Z,9.55
2023-04-01T01:58:46.013Z,9.53
2023-04-01T02:01:27.683Z,9.59
2023-04-01T02:03:59.237Z,9.57
2023-04-01T02:06:30.513Z,9.58
2023-04-01T02:09:04.302Z,9.57
2023-04-01T02:11:37.566Z,9.56
2023-04-01T02:14:11.798Z,9.59
2023-04-01T02:17:06.996Z,9.58
2023-04-01T02:19:39.084Z,9.57
2023-04-01T02:22:14.671Z,9.56
2023-04-01T02:24:42.869Z,9.60
2023-04-01T02:27:11.462Z,9.60
2023-04-01T02:29:38.602Z,9.56
2023-04-01T02:32:09.822Z,9.59
2023-04-01T02:34:37.419Z,9.57
2023-04-01T02:37:04.425Z,9.59
2023-04-01T02:39:31.343Z,9.56
2023-04-01T02:41:57.889Z,9.60
2023-04-01T02:44:24.389Z,9.59
2023-04-01T02:46:51.187Z,9.60
2023-04-01T02:49:17.869Z,9.57
2023-04-01T02:51:44.442Z,9.59
2023-04-01T02:54:11.294Z,9.58
2023-04-01T02:56:37.956Z,9.60
2023-04-01T02:59:04.681Z,9.62
2023-04-01T03:01:31.407Z,9.59
2023-04-01T03:03:57.986Z,9.61
2023-04-01T03:06:24.763Z,9.62
2023-04-01T03:08:51.376Z,9.61
2023-04-01T03:11:17.860Z,9.67
2023-04-01T03:13:44.512Z,9.61
2023-04-01T03:16:11.705Z,9.63
2023-04-01T03:18:38.321Z,9.60
2023-04-01T03:21:19.955Z,9.55
2023-04-01T03:23:46.539Z,9.55
2023-04-01T03:26:14.375Z,9.53
2023-04-01T03:28:41.424Z,9.57
2023-04-01T03:31:08.702Z,9.54
2023-04-01T03:33:41.820Z,9.52
2023-04-01T03:36:09.062Z,9.52
2023-04-01T03:38:36.398Z,9.52
2023-04-01T03:41:03.259Z,9.53
2023-04-01T03:43:31.414Z,9.53
2023-04-01T03:46:00.977Z,9.55
2023-04-01T03:48:27.591Z,9.55
2023-04-01T03:50:54.424Z,9.57
2023-04-01T03:53:21.238Z,9.58
2023-04-01T03:55:48.520Z,9.58
2023-04-01T03:58:16.114Z,9.54
2023-04-01T04:00:42.667Z,9.59
2023-04-01T04:03:10.542Z,9.59
2023-04-01T04:05:37.276Z,9.57
2023-04-01T04:08:04.769Z,9.61
2023-04-01T04:10:31.984Z,9.68
2023-04-01T04:12:58.786Z,9.63
2023-04-01T04:15:26.886Z,9.65
2023-04-01T04:17:53.512Z,9.67
2023-04-01T04:20:20.637Z,9.65
2023-04-01T04:22:47.585Z,9.68
2023-04-01T04:25:14.172Z,9.68
2023-04-01T04:27:40.887Z,9.70
2023-04-01T04:30:10.321Z,9.71
2023-04-01T04:32:37.190Z,9.70
2023-04-01T04:35:04.630Z,9.68
2023-04-01T04:37:31.249Z,9.67
2023-04-01T04:39:57.748Z,9.72
2023-04-01T04:42:24.845Z,9.72
2023-04-01T04:44:55.882Z,9.69
2023-04-01T04:47:22.790Z,9.67
2023-04-01T04:49:49.598Z,9.62
2023-04-01T04:52:16.077Z,9.61
2023-04-01T04:54:42.697Z,9.62
2023-04-01T04:57:09.328Z,9.60
2023-04-01T04:59:42.867Z,9.55
2023-04-01T05:02:13.813Z,9.50
2023-04-01T05:04:40.550Z,9.49
2023-04-01T05:07:09.748Z,9.43
2023-04-01T05:09:36.426Z,9.39
2023-04-01T05:12:03.860Z,9.30
2023-04-01T05:14:44.477Z,9.22
2023-04-01T05:17:14.167Z,9.22
2023-04-01T05:19:40.759Z,9.18
2023-04-01T05:22:07.525Z,9.18
2023-04-01T05:24:34.418Z,9.15
2023-04-01T05:27:00.997Z,9.09
2023-04-01T05:29:28.866Z,9.07
2023-04-01T05:32:02.967Z,9.05
2023-04-01T05:34:29.672Z,9.06
2023-04-01T05:36:56.112Z,9.05
2023-04-01T05:39:22.639Z,9.00
2023-04-01T05:41:49.136Z,8.99
2023-04-01T05:44:16.105Z,8.98
2023-04-01T05:46:43.023Z,9.02
2023-04-01T05:49:16.676Z,9.05
2023-04-01T05:51:43.366Z,9.03
2023-04-01T05:54:10.156Z,9.03
2023-04-01T05:56:37.625Z,9.05
2023-04-01T05:59:04.345Z,9.05
2023-04-01T06:01:30.973Z,9.09
2023-04-01T06:03:57.791Z,9.08
2023-04-01T06:06:31.796Z,9.12
2023-04-01T06:09:15.055Z,9.17
2023-04-01T06:12:19.989Z,9.14
2023-04-01T06:15:13.320Z,9.17
2023-04-01T06:17:58.721Z,9.16
2023-04-01T06:20:48.822Z,9.21
2023-04-01T06:23:36.950Z,9.22
2023-04-01T06:26:25.069Z,9.21
2023-04-01T06:29:04.585Z,9.21
2023-04-01T06:31:37.518Z,9.22
2023-04-01T06:34:16.520Z,9.23
2023-04-01T06:36:59.883Z,9.26
2023-04-01T06:39:43.682Z,9.26
2023-04-01T06:42:40.908Z,9.28
2023-04-01T06:45:39.702Z,9.29
2023-04-01T06:48:32.452Z,9.31
2023-04-01T06:51:32.996Z,9.30
2023-04-01T06:54:26.078Z,9.32
2023-04-01T06:57:29.492Z,9.34
2023-04-01T07:00:00.816Z,9.34
2023-04-01T07:02:40.014Z,9.36
2023-04-01T07:05:07.851Z,9.35
2023-04-01T07:07:44.883Z,9.34
2023-04-01T07:10:27.974Z,9.39
2023-04-01T07:13:20.294Z,9.41
2023-04-01T07:16:13.859Z,9.41
2023-04-01T07:18:53.925Z,9.43
2023-04-01T07:21:33.579Z,9.46
2023-04-01T07:24:11.230Z,9.47
2023-04-01T07:26:42.068Z,9.47
2023-04-01T07:29:14.483Z,9.49
2023-04-01T07:31:50.891Z,9.50
2023-04-01T07:34:29.225Z,9.47
2023-04-01T07:37:16.060Z,9.47
2023-04-01T07:40:18.107Z,9.50
2023-04-01T07:43:23.236Z,9.52
2023-04-01T07:46:16.457Z,9.47
2023-04-01T07:48:56.833Z,9.46
2023-04-01T07:52:03.822Z,9.48
2023-04-01T07:54:49.713Z,9.44
2023-04-01T07:57:22.103Z,9.34
2023-04-01T08:00:08.788Z,9.30
2023-04-01T08:03:04.082Z,9.26
2023-04-01T08:05:44.473Z,9.28
2023-04-01T08:08:24.167Z,9.24
2023-04-01T08:11:25.513Z,9.31
2023-04-01T08:14:26.807Z,9.35
2023-04-01T08:17:27.977Z,9.35
2023-04-01T08:20:04.668Z,9.20
2023-04-01T08:22:46.992Z,9.27
2023-04-01T08:25:26.617Z,9.31
2023-04-01T08:28:21.411Z,9.31
2023-04-01T08:31:17.609Z,9.28
2023-04-01T08:33:48.435Z,9.30
2023-04-01T08:36:22.526Z,9.23
2023-04-01T08:39:17.174Z,9.25
2023-04-01T08:42:19.978Z,9.21
2023-04-01T08:45:22.764Z,9.20
2023-04-01T08:48:17.098Z,9.20
2023-04-01T08:51:28.563Z,9.11
2023-04-01T08:54:31.963Z,9.13
2023-04-01T08:57:10.300Z,9.03
2023-04-01T09:00:11.335Z,9.06
2023-04-01T09:03:25.228Z,9.06
2023-04-01T09:06:08.235Z,9.02
2023-04-01T09:08:53.196Z,9.07
2023-04-01T09:11:38.838Z,9.10
2023-04-01T09:14:58.728Z,9.08
2023-04-01T09:18:08.104Z,9.06
2023-04-01T09:20:53.666Z,9.06
2023-04-01T09:23:30.380Z,9.05
2023-04-01T09:26:22.985Z,9.02
2023-04-01T09:29:03.809Z,9.08
2023-04-01T09:32:01.407Z,9.08
2023-04-01T09:34:55.503Z,9.09
2023-04-01T09:37:36.807Z,9.12
2023-04-01T09:40:25.961Z,9.10
2023-04-01T09:43:41.011Z,9.12
2023-04-01T09:46:37.217Z,9.20
2023-04-01T09:49:25.235Z,9.19
2023-04-01T09:52:16.224Z,9.21
2023-04-01T09:54:55.061Z,9.27
2023-04-01T09:57:43.407Z,9.30
2023-04-01T10:01:14.914Z,9.32
2023-04-01T10:04:00.569Z,9.36
2023-04-01T10:06:52.358Z,9.41
2023-04-01T10:09:28.508Z,9.39
2023-04-01T10:12:32.298Z,9.41
2023-04-01T10:15:20.321Z,9.43
2023-04-01T10:18:11.952Z,9.43
2023-04-01T10:21:13.448Z,9.43
2023-04-01T10:23:57.886Z,9.46
2023-04-01T10:27:09.355Z,9.46
2023-04-01T10:30:35.556Z,9.49
2023-04-01T10:33:16.616Z,9.48
2023-04-01T10:36:12.063Z,9.49
2023-04-01T10:39:04.518Z,9.48
2023-04-01T10:41:41.181Z,9.53
2023-04-01T10:45:08.009Z,9.55
2023-04-01T10:48:17.340Z,9.56
2023-04-01T10:51:17.129Z,9.63
2023-04-01T10:54:09.299Z,9.59
2023-04-01T10:57:36.532Z,9.60
2023-04-01T11:00:53.936Z,9.61
2023-04-01T11:04:31.369Z,9.59
2023-04-01T11:08:02.782Z,9.62
2023-04-01T11:11:12.571Z,9.61
2023-04-01T11:14:04.917Z,9.61
2023-04-01T11:16:48.804Z,9.63
2023-04-01T11:19:54.674Z,9.65
2023-04-01T11:22:43.557Z,9.64
2023-04-01T11:25:45.198Z,9.70
2023-04-01T11:28:52.551Z,9.73
2023-04-01T11:31:35.541Z,9.76
2023-04-01T11:34:08.696Z,9.79
2023-04-01T11:37:02.608Z,9.85
2023-04-01T11:39:47.819Z,9.85
2023-04-01T11:42:42.006Z,9.85
2023-04-01T11:45:49.048Z,9.88
2023-04-01T11:48:38.300Z,9.84
2023-04-01T11:51:22.912Z,9.87
2023-04-01T11:54:17.531Z,9.89
2023-04-01T11:57:13.394Z,9.91
2023-04-01T12:00:03.254Z,9.92
2023-04-01T12:02:49.631Z,9.91
2023-04-01T12:05:40.681Z,9.92
2023-04-01T12:08:07.085Z,9.93
2023-04-01T12:10:56.682Z,9.94
2023-04-01T12:13:46.669Z,9.99
2023-04-01T12:16:22.431Z,9.95
2023-04-01T12:19:33.067Z,9.97
2023-04-01T12:22:15.715Z,9.96
2023-04-01T12:24:53.384Z,10.00
2023-04-01T12:27:52.097Z,9.97
2023-04-01T12:30:33.188Z,10.02
2023-04-01T12:33:38.524Z,10.03
2023-04-01T12:36:26.267Z,10.04
2023-04-01T12:39:12.520Z,10.04
2023-04-01T12:42:08.422Z,10.04
2023-04-01T12:44:53.325Z,10.07
2023-04-01T12:47:48.293Z,10.09
2023-04-01T12:50:39.831Z,10.05
2023-04-01T12:53:40.330Z,10.10
2023-04-01T12:56:31.410Z,10.13
2023-04-01T12:59:21.547Z,10.17
2023-04-01T13:02:00.831Z,10.21
2023-04-01T13:04:52.655Z,10.22
2023-04-01T13:07:50.711Z,10.21
2023-04-01T13:10:30.852Z,10.22
2023-04-01T13:12:57.546Z,10.23
2023-04-01T13:15:42.728Z,10.25
2023-04-01T13:18:31.176Z,10.25
2023-04-01T13:21:29.297Z,10.25
2023-04-01T13:24:17.680Z,10.26
2023-04-01T13:27:23.383Z,10.27
2023-04-01T13:30:23.802Z,10.30
2023-04-01T13:33:10.110Z,10.32
2023-04-01T13:36:07.468Z,10.34
2023-04-01T13:38:53.769Z,10.38
2023-04-01T13:41:30.992Z,10.49
2023-04-01T13:44:13.662Z,10.53
2023-04-01T13:46:52.632Z,10.54
2023-04-01T13:49:42.262Z,10.55
2023-04-01T13:52:33.847Z,10.55
2023-04-01T13:55:34.874Z,10.50
2023-04-01T13:58:20.556Z,10.51
2023-04-01T14:01:15.444Z,10.59
2023-04-01T14:03:53.192Z,10.60
2023-04-01T14:06:50.917Z,10.53
2023-04-01T14:09:36.321Z,10.53
2023-04-01T14:12:26.452Z,10.54
2023-04-01T14:15:02.213Z,10.54
2023-04-01T14:17:38.665Z,10.51
2023-04-01T14:20:44.089Z,10.55
2023-04-01T14:23:32.600Z,10.55
2023-04-01T14:26:19.480Z,10.57
2023-04-01T14:29:03.832Z,10.58
2023-04-01T14:31:33.349Z,10.54
2023-04-01T14:34:26.002Z,10.60
2023-04-01T14:37:13.710Z,10.58
2023-04-01T14:40:07.321Z,10.58
2023-04-01T14:43:05.617Z,10.65
2023-04-01T14:45:44.193Z,10.68
2023-04-01T14:48:26.205Z,10.65
2023-04-01T14:50:56.354Z,10.68
2023-04-01T14:53:25.845Z,10.70
2023-04-01T14:56:03.858Z,10.75
2023-04-01T14:58:45.269Z,10.72
2023-04-01T15:01:43.361Z,10.73
2023-04-01T15:04:33.081Z,10.74
2023-04-01T15:07:05.711Z,10.80
2023-04-01T15:10:00.993Z,10.79
2023-04-01T15:12:33.506Z,10.75
2023-04-01T15:15:06.067Z,10.67
2023-04-01T15:17:59.302Z,10.57
2023-04-01T15:20:39.452Z,10.57
2023-04-01T15:23:23.085Z,10.55
2023-04-01T15:26:07.693Z,10.52
2023-04-01T15:28:50.588Z,10.50
2023-04-01T15:31:21.221Z,10.47
2023-04-01T15:34:09.695Z,10.46
2023-04-01T15:36:45.895Z,10.41
2023-04-01T15:39:18.632Z,10.36
2023-04-01T15:42:17.866Z,10.36
2023-04-01T15:44:53.459Z,10.33
2023-04-01T15:47:26.268Z,10.36
2023-04-01T15:50:11.437Z,10.32
2023-04-01T15:52:50.366Z,10.35
2023-04-01T15:55:26.207Z,10.28
2023-04-01T15:58:25.163Z,10.25
2023-04-01T16:01:05.335Z,10.20
2023-04-01T16:03:46.458Z,10.24
2023-04-01T16:06:19.880Z,10.26
2023-04-01T16:08:59.426Z,10.23
2023-04-01T16:11:55.561Z,10.21
2023-04-01T16:14:37.046Z,10.19
2023-04-01T16:17:19.848Z,10.17
2023-04-01T16:19:54.044Z,10.15
2023-04-01T16:22:34.906Z,10.17
2023-04-01T16:25:39.272Z,10.25
2023-04-01T16:28:33.630Z,10.21
2023-04-01T16:31:17.812Z,10.14
2023-04-01T16:33:53.268Z,10.19
2023-04-01T16:36:29.418Z,10.16
2023-04-01T16:39:51.214Z,10.22
2023-04-01T16:42:27.960Z,10.20
2023-04-01T16:45:03.931Z,10.25
2023-04-01T16:47:33.487Z,10.21
2023-04-01T16:50:24.386Z,10.19
2023-04-01T16:53:03.412Z,10.22
2023-04-01T16:55:55.240Z,10.33
2023-04-01T16:58:27.176Z,10.27
2023-04-01T17:01:05.523Z,10.36
2023-04-01T17:03:42.370Z,10.32
2023-04-01T17:06:14.020Z,10.26
2023-04-01T17:09:04.649Z,10.39
2023-04-01T17:11:45.660Z,10.29
2023-04-01T17:14:53.974Z,10.37
2023-04-01T17:17:47.517Z,10.36
2023-04-01T17:20:27.213Z,10.37
2023-04-01T17:23:06.607Z,10.34
2023-04-01T17:25:49.613Z,10.38
2023-04-01T17:28:35.936Z,10.36
2023-04-01T17:31:22.138Z,10.37
2023-04-01T17:34:01.381Z,10.34
2023-04-01T17:36:54.069Z,10.32
2023-04-01T17:39:56.276Z,10.36
2023-04-01T17:42:48.601Z,10.40
2023-04-01T17:45:46.770Z,10.36
2023-04-01T17:48:16.317Z,10.33
2023-04-01T17:50:58.252Z,10.35
2023-04-01T17:53:54.760Z,10.34
2023-04-01T17:57:04.277Z,10.34
2023-04-01T17:59:38.120Z,10.28
2023-04-01T18:02:25.281Z,10.25
2023-04-01T18:05:25.061Z,10.22
2023-04-01T18:08:02.285Z,10.23
2023-04-01T18:11:06.733Z,10.12
2023-04-01T18:13:42.579Z,10.08
2023-04-01T18:16:41.015Z,10.08
2023-04-01T18:19:40.355Z,10.07
2023-04-01T18:22:09.824Z,10.04
2023-04-01T18:24:46.987Z,10.00
2023-04-01T18:27:23.743Z,9.99
2023-04-01T18:30:16.296Z,9.94
2023-04-01T18:32:55.643Z,9.93
2023-04-01T18:35:50.326Z,9.91
2023-04-01T18:38:30.402Z,9.92
2023-04-01T18:41:14.458Z,9.85
2023-04-01T18:44:01.047Z,9.86
2023-04-01T18:46:53.976Z,9.80
2023-04-01T18:49:30.855Z,9.73
2023-04-01T18:52:14.606Z,9.71
2023-04-01T18:55:04.435Z,9.70
2023-04-01T18:57:51.172Z,9.69
2023-04-01T19:00:23.675Z,9.66
2023-04-01T19:03:03.217Z,9.64
2023-04-01T19:05:40.119Z,9.59
2023-04-01T19:08:21.043Z,9.63
2023-04-01T19:11:01.212Z,9.60
2023-04-01T19:13:58.668Z,9.55
2023-04-01T19:16:49.761Z,9.48
2023-04-01T19:19:22.170Z,9.46
2023-04-01T19:21:56.711Z,9.42
2023-04-01T19:24:54.142Z,9.38
2023-04-01T19:27:47.787Z,9.42
2023-04-01T19:30:26.578Z,9.42
2023-04-01T19:33:23.726Z,9.42
2023-04-01T19:36:11.824Z,9.35
2023-04-01T19:38:41.406Z,9.34
2023-04-01T19:41:26.300Z,9.30
2023-04-01T19:44:24.341Z,9.35
2023-04-01T19:46:57.816Z,9.34
2023-04-01T19:49:44.824Z,9.31
2023-04-01T19:52:18.393Z,9.30
2023-04-01T19:54:54.189Z,9.28
2023-04-01T19:57:23.676Z,9.23
2023-04-01T20:00:07.430Z,9.18
2023-04-01T20:02:57.763Z,9.22
2023-04-01T20:05:49.912Z,9.23
2023-04-01T20:08:25.369Z,9.18
2023-04-01T20:11:07.108Z,9.19
2023-04-01T20:13:59.622Z,9.19
2023-04-01T20:16:41.935Z,9.19
2023-04-01T20:19:11.911Z,9.20
2023-04-01T20:21:46.955Z,9.16
2023-04-01T20:24:42.521Z,9.18
2023-04-01T20:27:15.440Z,9.20
2023-04-01T20:30:01.309Z,9.13
2023-04-01T20:33:27.621Z,9.14
2023-04-01T20:36:28.099Z,9.09
2023-04-01T20:39:27.066Z,9.08
2023-04-01T20:41:53.515Z,9.12
2023-04-01T20:44:51.194Z,9.07
2023-04-01T20:47:23.769Z,9.07
2023-04-01T20:50:25.715Z,9.08
2023-04-01T20:53:12.359Z,9.06
2023-04-01T20:55:48.472Z,9.07
2023-04-01T20:58:44.465Z,9.07
2023-04-01T21:01:43.104Z,9.09
2023-04-01T21:04:23.583Z,9.07
2023-04-01T21:07:13.098Z,9.07
2023-04-01T21:10:13.102Z,9.07
2023-04-01T21:13:17.046Z,9.07
2023-04-01T21:16:20.958Z,9.07
2023-04-01T21:19:02.739Z,9.10
2023-04-01T21:21:41.605Z,9.06
2023-04-01T21:24:14.185Z,9.08
2023-04-01T21:27:15.414Z,9.05
2023-04-01T21:29:54.120Z,9.03
2023-04-01T21:32:52.975Z,9.05
2023-04-01T21:35:41.154Z,9.02
2023-04-01T21:38:26.893Z,9.04
2023-04-01T21:41:17.010Z,9.05
2023-04-01T21:43:43.390Z,8.99
2023-04-01T21:46:34.570Z,9.05
2023-04-01T21:49:20.159Z,8.99
2023-04-01T21:52:14.565Z,8.95
2023-04-01T21:55:18.281Z,8.95
2023-04-01T21:58:00.143Z,8.94
2023-04-01T22:00:39.128Z,8.92
2023-04-01T22:03:36.604Z,8.91
2023-04-01T22:06:28.252Z,8.89
2023-04-01T22:09:04.312Z,8.96
2023-04-01T22:11:46.063Z,8.93
2023-04-01T22:14:22.296Z,8.89
2023-04-01T22:16:58.737Z,8.93
2023-04-01T22:19:42.914Z,8.90
2023-04-01T22:22:18.276Z,8.90
2023-04-01T22:25:19.702Z,8.91
2023-04-01T22:28:07.193Z,8.93
2023-04-01T22:30:44.119Z,8.87
2023-04-01T22:33:54.014Z,8.85
2023-04-01T22:36:32.696Z,8.90
2023-04-01T22:39:17.501Z,8.89
2023-04-01T22:41:53.718Z,8.86
2023-04-01T22:44:31.733Z,8.94
2023-04-01T22:47:16.027Z,8.90
2023-04-01T22:49:55.979Z,8.92
2023-04-01T22:52:39.599Z,8.93
2023-04-01T22:55:16.663Z,8.92
2023-04-01T22:58:12.345Z,8.89
2023-04-01T23:00:51.118Z,8.86
2023-04-01T23:03:41.370Z,8.87
2023-04-01T23:06:16.318Z,8.85
2023-04-01T23:09:05.952Z,8.88
2023-04-01T23:11:42.983Z,8.88
2023-04-01T23:14:21.646Z,8.85
2023-04-01T23:17:02.357Z,8.89
2023-04-01T23:20:06.949Z,8.86
2023-04-01T23:22:51.306Z,8.83
2023-04-01T23:25:35.923Z,8.86
2023-04-01T23:28:26.082Z,8.83
2023-04-01T23:30:53.103Z,8.81
2023-04-01T23:33:19.630Z,8.82
2023-04-01T23:35:49.770Z,8.82
2023-04-01T23:38:17.421Z,8.83
2023-04-01T23:40:44.146Z,8.76
2023-04-01T23:43:21.542Z,8.74
2023-04-01T23:45:48.137Z,8.74
2023-04-01T23:48:17.111Z,8.68
2023-04-01T23:50:45.290Z,8.70
2023-04-01T23:53:34.498Z,8.69
2023-04-01T23:56:03.635Z,8.70
2023-04-01T23:58:44.965Z,8.74
